Time;durP1;ratioP1;P1;durP2;ratioP2;P2;SDS_P1;SDS_P2;PMS_P1;PMS_P2;Temp;Humidity;BMP_temperature;BMP_pressure;BME280_temperature;BME280_humidity;BME280_pressure;Samples;Min_cycle;Max_cycle;Signal;HPM_P1;HPM_P2
2023/04/16 00:01:15;;;;;;;22.75;13.70;;;;;;;13.18;69.56;101313.84;5037664;28;20479;-48
2023/04/16 00:03:41;;;;;;;22.83;13.48;;;;;;;13.19;69.53;101313.72;5040124;28;20056;-49
2023/04/16 00:06:06;;;;;;;26.20;13.32;;;;;;;13.17;69.60;101310.31;5049029;28;20158;-47
2023/04/16 00:08:31;;;;;;;23.42;13.90;;;;;;;13.11;69.78;101311.53;5043044;28;20033;-48
2023/04/16 00:10:57;;;;;;;20.98;12.82;;;;;;;13.14;69.93;101318.47;5043102;28;20051;-46
2023/04/16 00:13:22;;;;;;;22.83;13.35;;;;;;;13.13;69.73;101319.41;5043357;28;20036;-52
2023/04/16 00:15:48;;;;;;;23.10;13.50;;;;;;;13.13;69.90;101321.16;5040946;28;20057;-51
2023/04/16 00:18:13;;;;;;;26.40;13.23;;;;;;;13.10;69.68;101314.28;5025124;28;20046;-47
2023/04/16 00:20:39;;;;;;;23.58;14.52;;;;;;;13.07;69.86;101320.63;5036959;28;20131;-53
2023/04/16 00:23:04;;;;;;;25.10;13.60;;;;;;;13.07;69.84;101323.25;5035514;28;20052;-48
2023/04/16 00:25:30;;;;;;;20.73;12.85;;;;;;;13.10;69.73;101322.22;5035367;28;20056;-51
2023/04/16 00:27:55;;;;;;;19.88;13.07;;;;;;;13.13;69.87;101322.03;5033737;28;20029;-46
2023/04/16 00:30:21;;;;;;;21.98;13.95;;;;;;;13.15;69.91;101316.66;5039592;28;20060;-51
2023/04/16 00:32:47;;;;;;;25.02;14.80;;;;;;;13.17;69.88;101322.69;5036245;28;20025;-52
2023/04/16 00:35:12;;;;;;;22.10;13.20;;;;;;;13.15;69.47;101317.50;5029927;28;20048;-52
2023/04/16 00:37:37;;;;;;;20.10;12.18;;;;;;;13.14;69.69;101326.38;5038064;28;20571;-48
2023/04/16 00:40:04;;;;;;;19.67;12.63;;;;;;;13.08;69.84;101332.84;5042633;28;20026;-51
2023/04/16 00:42:29;;;;;;;22.40;13.27;;;;;;;13.06;69.96;101329.47;5040438;28;20131;-48
2023/04/16 00:44:55;;;;;;;21.15;12.88;;;;;;;13.09;69.83;101326.63;5043176;28;20159;-53
2023/04/16 00:47:20;;;;;;;25.20;13.73;;;;;;;13.11;69.92;101329.19;5034377;28;20029;-48
2023/04/16 00:49:46;;;;;;;21.98;13.07;;;;;;;13.13;69.74;101323.81;5048574;28;20033;-50
2023/04/16 00:52:12;;;;;;;21.98;13.60;;;;;;;13.14;69.79;101328.16;5045626;28;20520;-50
2023/04/16 00:54:38;;;;;;;23.27;14.73;;;;;;;13.15;69.83;101320.16;5047921;28;20089;-52
2023/04/16 00:57:03;;;;;;;20.60;13.27;;;;;;;13.12;70.02;101325.63;5047078;28;20037;-51
2023/04/16 00:59:29;;;;;;;23.40;12.80;;;;;;;13.14;69.77;101326.38;5050642;28;20033;-51
2023/04/16 01:01:54;;;;;;;20.85;12.05;;;;;;;13.12;69.84;101325.63;5047946;28;20032;-48
2023/04/16 01:04:20;;;;;;;22.15;13.43;;;;;;;13.09;69.93;101321.34;5043435;28;20561;-50
2023/04/16 01:06:45;;;;;;;23.42;13.65;;;;;;;13.13;70.12;101332.59;5049238;28;20029;-55
2023/04/16 01:09:11;;;;;;;22.02;13.95;;;;;;;13.10;69.98;101330.97;5045989;28;20025;-51
2023/04/16 01:11:36;;;;;;;19.02;12.50;;;;;;;13.12;69.95;101328.25;5043972;28;20033;-49
2023/04/16 01:14:03;;;;;;;21.17;12.45;;;;;;;13.10;70.03;101336.25;5047172;28;20029;-53
2023/04/16 01:16:28;;;;;;;17.88;11.88;;;;;;;13.10;69.98;101338.91;5041570;28;20059;-51
2023/04/16 01:18:53;;;;;;;21.70;11.32;;;;;;;13.09;69.99;101339.84;5040614;28;20483;-48
2023/04/16 01:21:19;;;;;;;19.00;12.52;;;;;;;13.10;70.16;101341.53;5034566;28;20479;-53
2023/04/16 01:23:44;;;;;;;21.65;11.82;;;;;;;13.11;69.95;101345.06;5040651;28;20056;-51
2023/04/16 01:26:10;;;;;;;18.13;11.68;;;;;;;13.07;70.07;101341.75;5043188;28;20123;-56
2023/04/16 01:28:35;;;;;;;18.30;11.32;;;;;;;13.07;69.82;101347.03;5042056;28;22049;-50
2023/04/16 01:31:01;;;;;;;27.15;11.65;;;;;;;13.06;70.17;101341.81;5039642;28;20588;-50
2023/04/16 01:33:26;;;;;;;23.30;12.23;;;;;;;13.07;69.85;101336.47;5042264;28;20065;-50
2023/04/16 01:35:52;;;;;;;17.83;12.13;;;;;;;13.11;70.06;101337.97;5038880;28;20442;-49
2023/04/16 01:38:17;;;;;;;19.00;11.70;;;;;;;13.11;70.05;101339.75;5039845;28;20029;-50
2023/04/16 01:40:43;;;;;;;17.35;11.05;;;;;;;13.10;70.05;101338.91;5043966;28;20068;-50
2023/04/16 01:43:08;;;;;;;18.83;11.13;;;;;;;13.09;70.22;101339.00;5044490;28;20032;-49
2023/04/16 01:45:34;;;;;;;17.35;11.15;;;;;;;13.08;70.10;101339.94;5042374;28;20055;-48
2023/04/16 01:48:00;;;;;;;20.67;11.27;;;;;;;13.06;70.22;101340.03;5036103;28;20032;-50
2023/04/16 01:50:26;;;;;;;20.80;12.30;;;;;;;13.05;70.30;101348.91;5042498;28;20032;-50
2023/04/16 01:52:51;;;;;;;18.75;12.05;;;;;;;13.04;70.22;101341.91;5043704;28;20086;-53
2023/04/16 01:55:17;;;;;;;19.60;10.95;;;;;;;13.01;70.22;101347.38;5047403;28;20443;-47
2023/04/16 01:57:42;;;;;;;18.23;11.40;;;;;;;13.00;70.17;101350.97;5040803;28;20032;-51
2023/04/16 02:00:08;;;;;;;16.13;10.68;;;;;;;12.98;70.28;101336.97;5042639;28;20099;-52
2023/04/16 02:02:34;;;;;;;20.23;11.48;;;;;;;12.99;70.43;101340.50;5040473;28;20041;-51
2023/04/16 02:05:01;;;;;;;20.35;11.88;;;;;;;12.98;70.18;101341.44;5039488;28;20498;-54
2023/04/16 02:07:27;;;;;;;20.02;11.73;;;;;;;12.96;70.18;101338.84;5037050;28;20155;-55
2023/04/16 02:09:52;;;;;;;18.88;11.77;;;;;;;12.95;70.15;101345.06;5037542;28;20171;-49
2023/04/16 02:12:18;;;;;;;19.73;11.18;;;;;;;12.98;70.25;101352.00;5039366;28;20966;-51
2023/04/16 02:14:44;;;;;;;18.98;12.27;;;;;;;13.00;70.18;101350.97;5046012;28;20044;-50
2023/04/16 02:17:10;;;;;;;17.02;11.02;;;;;;;12.96;70.27;101349.44;5044010;28;20037;-54
2023/04/16 02:19:36;;;;;;;19.50;10.95;;;;;;;12.98;70.15;101350.19;5044669;28;20036;-53
2023/04/16 02:22:01;;;;;;;18.88;11.05;;;;;;;13.03;70.25;101349.91;5044328;28;20024;-53
2023/04/16 02:24:27;;;;;;;11.98;6.90;;;;;;;13.02;70.29;101348.22;5036038;28;20024;-49
2023/04/16 02:26:52;;;;;;;18.05;11.30;;;;;;;13.03;69.77;101358.72;5036963;28;20085;-52
2023/04/16 02:29:18;;;;;;;19.23;11.07;;;;;;;13.00;70.21;101356.25;5040685;28;20923;-54
2023/04/16 02:31:45;;;;;;;16.00;11.45;;;;;;;13.01;69.82;101357.94;5013351;28;20044;-52
2023/04/16 02:34:11;;;;;;;16.23;10.80;;;;;;;12.94;70.42;101364.50;5037458;28;20122;-49
2023/04/16 02:36:36;;;;;;;18.40;10.65;;;;;;;12.94;70.34;101361.88;5024262;28;20114;-53
2023/04/16 02:39:02;;;;;;;15.68;9.38;;;;;;;12.92;70.25;101369.06;5036780;28;20068;-52
2023/04/16 02:41:27;;;;;;;17.90;11.27;;;;;;;12.89;70.39;101363.94;5037519;28;20056;-51
2023/04/16 02:43:53;;;;;;;20.55;11.13;;;;;;;12.86;70.44;101361.47;5042093;28;20548;-53
2023/04/16 02:46:18;;;;;;;19.45;11.32;;;;;;;12.83;70.28;101365.16;5029005;28;20036;-53
2023/04/16 02:48:44;;;;;;;22.27;12.20;;;;;;;12.81;70.39;101375.78;5037614;28;20037;-53
2023/04/16 02:51:09;;;;;;;16.98;11.60;;;;;;;12.79;70.36;101374.19;5040178;28;20032;-51
2023/04/16 02:53:35;;;;;;;20.20;11.32;;;;;;;12.80;70.33;101376.72;5043607;28;20040;-50
2023/04/16 02:56:00;;;;;;;15.68;10.60;;;;;;;12.78;70.33;101381.22;5038723;28;20111;-49
2023/04/16 02:58:26;;;;;;;20.77;11.68;;;;;;;12.78;70.33;101378.59;5025325;28;20055;-49
2023/04/16 03:00:53;;;;;;;19.05;11.88;;;;;;;12.74;70.50;101373.56;5039805;28;20033;-52
2023/04/16 03:03:19;;;;;;;18.33;11.52;;;;;;;12.79;70.49;101374.19;5036692;28;20028;-51
2023/04/16 03:05:44;;;;;;;22.60;11.70;;;;;;;12.83;70.09;101377.50;5041242;28;20538;-52
2023/04/16 03:08:10;;;;;;;20.05;12.35;;;;;;;12.85;70.27;101375.63;5037911;28;20051;-51
2023/04/16 03:10:36;;;;;;;23.73;12.55;;;;;;;12.87;70.01;101371.94;5043149;28;20036;-53
2023/04/16 03:13:02;;;;;;;20.67;12.45;;;;;;;12.88;70.04;101376.28;5044911;28;20029;-48
2023/04/16 03:15:29;;;;;;;20.73;12.50;;;;;;;12.94;70.08;101375.94;5041453;28;20029;-52
2023/04/16 03:17:54;;;;;;;22.67;13.18;;;;;;;12.82;70.39;101384.56;5044455;28;20084;-51
2023/04/16 03:20:20;;;;;;;23.48;12.70;;;;;;;12.76;70.61;101379.63;5042071;28;20025;-51
2023/04/16 03:22:46;;;;;;;21.33;12.80;;;;;;;12.76;70.53;101382.28;5045744;28;20032;-51
2023/04/16 03:25:12;;;;;;;20.55;12.90;;;;;;;12.71;70.61;101382.53;5038211;28;20802;-55
2023/04/16 03:27:40;;;;;;;21.60;14.88;;;;;;;12.71;70.60;101379.91;5038876;28;20033;-50
2023/04/16 03:30:07;;;;;;;19.83;13.15;;;;;;;12.73;70.67;101385.94;5041923;28;20090;-51
2023/04/16 03:32:32;;;;;;;21.58;12.90;;;;;;;12.67;70.69;101374.88;5040071;28;20044;-50
2023/04/16 03:34:58;;;;;;;21.55;13.85;;;;;;;12.68;70.69;101385.34;5042765;28;20033;-50
2023/04/16 03:37:23;;;;;;;23.60;13.93;;;;;;;12.63;70.57;101382.97;5037629;28;20075;-50
2023/04/16 03:39:49;;;;;;;28.92;13.60;;;;;;;12.62;70.77;101385.72;5036394;28;20033;-50
2023/04/16 03:42:14;;;;;;;24.08;13.45;;;;;;;12.59;70.84;101386.72;5038684;28;20030;-51
2023/04/16 03:44:40;;;;;;;25.38;15.45;;;;;;;12.60;70.78;101380.50;5038165;28;20616;-52
2023/04/16 03:47:05;;;;;;;22.23;14.52;;;;;;;12.59;70.57;101394.63;5032924;28;20037;-48
2023/04/16 03:49:31;;;;;;;24.65;14.48;;;;;;;12.54;70.64;101391.41;5041480;28;20045;-50
2023/04/16 03:51:56;;;;;;;20.42;14.07;;;;;;;12.50;70.78;101400.44;5032668;28;20087;-52
2023/04/16 03:54:21;;;;;;;30.75;16.20;;;;;;;12.41;71.07;101395.66;5045716;28;20029;-49
2023/04/16 03:56:47;;;;;;;27.38;15.65;;;;;;;12.36;70.92;101398.53;5041449;28;20399;-49
2023/04/16 03:59:12;;;;;;;26.80;15.35;;;;;;;12.32;71.07;101410.22;5040892;28;20043;-48
2023/04/16 04:01:38;;;;;;;24.10;13.93;;;;;;;12.30;71.02;101398.91;5045437;28;20095;-49
2023/04/16 04:04:03;;;;;;;25.48;14.57;;;;;;;12.31;71.09;101411.16;5033843;28;20033;-51
2023/04/16 04:06:28;;;;;;;29.58;16.63;;;;;;;12.32;71.03;101407.59;5043335;28;20124;-47
2023/04/16 04:08:54;;;;;;;25.50;15.63;;;;;;;12.32;70.93;101408.41;5040039;28;20035;-49
2023/04/16 04:11:19;;;;;;;23.27;14.65;;;;;;;12.34;71.00;101409.19;5049515;28;21143;-53
2023/04/16 04:13:45;;;;;;;27.13;14.93;;;;;;;12.37;71.07;101413.44;5046057;28;20037;-51
2023/04/16 04:16:10;;;;;;;23.20;14.80;;;;;;;12.49;70.49;101409.28;5038225;28;20033;-55
2023/04/16 04:18:36;;;;;;;27.85;15.32;;;;;;;12.44;70.82;101416.59;5036684;28;20045;-49
2023/04/16 04:21:08;;;;;;;25.35;14.05;;;;;;;12.48;70.75;101418.97;5017246;28;20063;-48
2023/04/16 04:23:37;;;;;;;26.38;14.25;;;;;;;12.51;70.98;101420.63;5035334;28;20432;-52
2023/04/16 04:26:04;;;;;;;23.80;13.65;;;;;;;12.53;70.64;101426.66;5045498;28;20113;-51
2023/04/16 04:28:31;;;;;;;23.23;13.23;;;;;;;12.50;70.74;101432.94;5044467;28;20044;-51
2023/04/16 04:30:57;;;;;;;25.98;14.52;;;;;;;12.52;70.78;101432.88;5047999;28;20118;-48
2023/04/16 04:33:24;;;;;;;27.75;15.05;;;;;;;12.54;70.63;101430.16;5049510;28;20069;-48
2023/04/16 04:35:50;;;;;;;26.02;14.60;;;;;;;12.55;70.67;101430.06;5045585;28;20119;-51
2023/04/16 04:38:20;;;;;;;23.35;13.88;;;;;;;12.60;70.71;101438.56;5039769;28;20049;-49
2023/04/16 04:40:47;;;;;;;28.60;14.93;;;;;;;12.62;70.61;101439.34;5044235;28;20032;-53
2023/04/16 04:43:12;;;;;;;27.55;15.38;;;;;;;12.57;70.66;101437.91;5046744;28;20329;-54
2023/04/16 04:45:38;;;;;;;18.83;12.52;;;;;;;12.56;70.71;101441.47;5038677;28;20526;-49
2023/04/16 04:48:03;;;;;;;22.83;13.63;;;;;;;12.53;70.82;101442.50;5043816;28;20122;-50
2023/04/16 04:50:29;;;;;;;21.05;13.68;;;;;;;12.53;70.90;101446.91;5049429;28;20048;-52
2023/04/16 04:52:55;;;;;;;22.05;13.40;;;;;;;12.47;70.97;101441.06;5049764;28;20030;-50
2023/04/16 04:55:20;;;;;;;23.65;13.60;;;;;;;12.46;70.96;101446.41;5049428;28;20025;-49
2023/04/16 04:57:46;;;;;;;22.27;14.35;;;;;;;12.45;70.90;101442.94;5017775;28;20036;-49
2023/04/16 05:00:11;;;;;;;21.42;13.85;;;;;;;12.47;70.97;101446.34;5041862;28;20033;-53
2023/04/16 05:02:37;;;;;;;25.52;15.05;;;;;;;12.50;71.04;101447.94;5017229;28;20063;-55
2023/04/16 05:05:03;;;;;;;24.52;14.05;;;;;;;12.48;71.19;101453.28;5042139;28;20653;-51
2023/04/16 05:07:29;;;;;;;22.92;14.35;;;;;;;12.53;70.76;101449.56;5032105;28;20128;-49
2023/04/16 05:09:54;;;;;;;23.25;14.52;;;;;;;12.51;70.94;101454.94;5040966;28;20036;-55
2023/04/16 05:12:19;;;;;;;22.88;13.80;;;;;;;12.51;71.01;101460.22;5043678;28;20123;-53
2023/04/16 05:14:45;;;;;;;25.83;13.70;;;;;;;12.54;70.75;101454.78;5049517;28;20029;-50
2023/04/16 05:17:10;;;;;;;21.70;13.50;;;;;;;12.58;70.71;101466.84;5034804;28;20029;-49
2023/04/16 05:19:36;;;;;;;26.75;14.98;;;;;;;12.61;70.79;101468.50;5042698;28;20114;-51
2023/04/16 05:22:01;;;;;;;23.90;15.20;;;;;;;12.64;70.71;101463.00;5043283;28;20128;-51
2023/04/16 05:24:27;;;;;;;22.67;13.93;;;;;;;12.67;70.61;101464.66;5043506;28;20060;-50
2023/04/16 05:26:52;;;;;;;24.70;13.15;;;;;;;12.71;70.56;101467.03;5043552;28;20090;-50
2023/04/16 05:29:18;;;;;;;22.00;13.27;;;;;;;12.68;70.27;101472.47;5039263;28;20029;-50
2023/04/16 05:31:44;;;;;;;20.40;12.10;;;;;;;12.71;70.60;101474.94;5044379;28;20029;-49
2023/04/16 05:34:09;;;;;;;20.58;12.88;;;;;;;12.66;70.48;101469.06;5041739;28;20045;-48
2023/04/16 05:36:35;;;;;;;19.27;11.48;;;;;;;12.71;70.49;101474.94;5043752;28;20494;-49
2023/04/16 05:39:00;;;;;;;23.13;12.02;;;;;;;12.76;70.29;101475.56;5035327;28;20120;-48
2023/04/16 05:41:25;;;;;;;20.25;12.00;;;;;;;12.76;70.36;101480.84;5045284;28;20029;-48
2023/04/16 05:43:51;;;;;;;16.92;10.88;;;;;;;12.78;70.43;101481.59;5043219;28;20124;-51
2023/04/16 05:46:16;;;;;;;17.92;12.13;;;;;;;12.74;70.31;101485.34;5037867;28;20521;-48
2023/04/16 05:48:42;;;;;;;23.73;12.50;;;;;;;12.75;70.37;101489.69;5040127;28;20036;-51
2023/04/16 05:51:07;;;;;;;24.58;15.45;;;;;;;12.77;70.31;101487.84;5046810;28;20048;-48
2023/04/16 05:53:32;;;;;;;16.40;10.38;;;;;;;12.79;70.42;101488.56;5011510;28;20052;-51
2023/04/16 05:55:58;;;;;;;15.50;10.18;;;;;;;12.78;70.26;101497.44;5033028;28;20043;-54
2023/04/16 05:58:23;;;;;;;15.48;9.13;;;;;;;12.80;70.47;101498.19;5044937;28;20114;-53
2023/04/16 06:00:49;;;;;;;15.05;10.25;;;;;;;12.82;70.30;101492.84;5033124;28;20368;-52
2023/04/16 06:03:14;;;;;;;14.40;9.45;;;;;;;12.87;70.06;101500.53;5046531;28;20033;-55
2023/04/16 06:05:40;;;;;;;14.63;9.88;;;;;;;12.86;70.47;101504.09;5046860;28;20104;-52
2023/04/16 06:08:05;;;;;;;19.20;10.98;;;;;;;12.90;70.19;101503.00;5038027;28;20032;-53
2023/04/16 06:10:31;;;;;;;16.58;9.45;;;;;;;12.88;70.04;101512.78;5039703;28;20033;-53
2023/04/16 06:12:56;;;;;;;15.10;8.95;;;;;;;12.90;70.11;101517.03;5039701;28;20041;-52
2023/04/16 06:15:21;;;;;;;13.68;9.27;;;;;;;12.88;70.32;101518.91;5045962;28;20423;-53
2023/04/16 06:17:48;;;;;;;15.00;9.25;;;;;;;12.91;70.19;101529.31;5032686;28;20048;-51
2023/04/16 06:20:13;;;;;;;15.95;9.25;;;;;;;12.94;69.92;101520.34;5037670;28;20037;-51
2023/04/16 06:22:39;;;;;;;19.15;9.85;;;;;;;13.02;69.61;101523.44;5048416;28;20041;-50
2023/04/16 06:25:05;;;;;;;12.13;8.50;;;;;;;13.00;69.59;101525.31;5037393;28;20043;-53
2023/04/16 06:27:30;;;;;;;13.85;8.88;;;;;;;12.83;70.19;101522.75;5037598;28;20033;-51
2023/04/16 06:29:56;;;;;;;13.98;9.07;;;;;;;12.78;70.38;101521.19;5022987;28;20032;-55
2023/04/16 06:32:22;;;;;;;12.80;8.93;;;;;;;12.78;70.26;101526.47;5044986;28;20040;-52
2023/04/16 06:34:47;;;;;;;14.00;9.18;;;;;;;12.81;70.41;101531.59;5045188;28;20025;-52
2023/04/16 06:37:13;;;;;;;14.20;8.75;;;;;;;12.84;70.28;101527.97;5036544;28;20159;-54
2023/04/16 06:39:38;;;;;;;15.20;8.23;;;;;;;12.87;70.00;101529.56;5035164;28;20491;-52
2023/04/16 06:42:04;;;;;;;10.05;7.78;;;;;;;12.88;70.02;101532.13;5018257;28;20423;-54
2023/04/16 06:44:29;;;;;;;13.70;8.73;;;;;;;12.91;70.25;101539.03;5018219;28;20033;-52
2023/04/16 06:46:55;;;;;;;16.75;8.75;;;;;;;12.95;70.11;101537.91;5033664;28;20146;-55
2023/04/16 06:49:20;;;;;;;14.40;8.25;;;;;;;12.98;70.28;101536.91;5043817;28;20438;-51
2023/04/16 06:51:46;;;;;;;15.55;9.27;;;;;;;13.02;69.92;101541.06;5036849;28;20033;-53
2023/04/16 06:54:11;;;;;;;13.63;8.90;;;;;;;13.04;69.95;101537.41;5041935;28;20147;-53
2023/04/16 06:56:37;;;;;;;17.30;9.85;;;;;;;13.08;69.97;101536.28;5042806;28;20124;-55
2023/04/16 06:59:03;;;;;;;13.32;9.30;;;;;;;13.13;69.88;101543.13;5040420;28;20432;-53
2023/04/16 07:01:30;;;;;;;14.93;9.13;;;;;;;13.11;69.59;101541.41;5032550;28;20048;-53
2023/04/16 07:03:56;;;;;;;14.25;8.75;;;;;;;13.11;69.69;101546.69;5035149;28;20042;-52
2023/04/16 07:06:21;;;;;;;25.30;15.38;;;;;;;13.15;69.86;101549.19;5041524;28;20387;-53
2023/04/16 07:08:47;;;;;;;13.88;9.82;;;;;;;13.17;69.71;101542.03;5035343;28;20472;-54
2023/04/16 07:11:12;;;;;;;12.60;9.27;;;;;;;13.19;69.53;101548.06;5041112;28;20443;-52
2023/04/16 07:13:38;;;;;;;11.82;8.07;;;;;;;13.21;69.18;101549.69;5042284;28;20453;-51
2023/04/16 07:16:03;;;;;;;14.90;9.05;;;;;;;13.24;69.46;101551.28;5033487;28;20033;-55
2023/04/16 07:18:29;;;;;;;13.50;8.48;;;;;;;13.26;69.36;101552.06;5036940;28;20037;-53
2023/04/16 07:20:54;;;;;;;14.85;9.50;;;;;;;13.29;69.28;101561.63;5042315;28;20652;-50
2023/04/16 07:23:20;;;;;;;12.70;8.35;;;;;;;13.18;69.51;101559.56;5042991;28;20067;-54
2023/04/16 07:25:45;;;;;;;14.05;9.32;;;;;;;13.17;69.30;101557.88;5044965;28;20025;-48
2023/04/16 07:28:11;;;;;;;13.50;9.00;;;;;;;13.18;69.63;101562.22;5041417;28;20037;-53
2023/04/16 07:30:37;;;;;;;15.95;10.93;;;;;;;13.20;69.22;101563.00;5034783;28;20029;-53
2023/04/16 07:33:02;;;;;;;16.63;9.50;;;;;;;13.21;69.49;101565.53;5040075;28;20029;-50
2023/04/16 07:35:29;;;;;;;30.88;17.58;;;;;;;13.33;69.23;101564.00;5037279;28;20145;-52
2023/04/16 07:37:54;;;;;;;14.68;10.00;;;;;;;13.44;68.83;101566.09;5031693;28;21090;-51
2023/04/16 07:40:20;;;;;;;14.30;9.80;;;;;;;13.27;69.21;101572.25;5021775;28;20442;-51
2023/04/16 07:42:45;;;;;;;15.40;10.18;;;;;;;13.21;69.59;101569.97;5044165;28;20076;-52
2023/04/16 07:45:11;;;;;;;12.05;8.88;;;;;;;13.25;69.59;101572.38;5039110;28;20048;-52
2023/04/16 07:47:36;;;;;;;12.02;8.73;;;;;;;13.34;69.52;101575.41;5038536;28;20044;-55
2023/04/16 07:50:02;;;;;;;12.73;9.43;;;;;;;13.41;69.20;101567.09;5013813;28;20037;-52
2023/04/16 07:52:27;;;;;;;12.45;8.23;;;;;;;13.48;69.51;101574.69;5036280;28;20036;-52
2023/04/16 07:54:53;;;;;;;12.23;7.00;;;;;;;13.55;69.22;101578.66;5039606;28;20606;-54
2023/04/16 07:57:18;;;;;;;11.80;7.07;;;;;;;13.59;69.02;101585.50;5038552;28;20036;-53
2023/04/16 07:59:44;;;;;;;12.18;8.07;;;;;;;13.65;68.82;101589.56;5042453;28;20044;-51
2023/04/16 08:02:13;;;;;;;12.18;8.45;;;;;;;13.65;68.88;101585.16;5035321;28;20033;-52
2023/04/16 08:04:39;;;;;;;10.63;7.53;;;;;;;13.66;68.75;101589.50;5033643;28;20020;-55
2023/04/16 08:07:05;;;;;;;14.90;8.02;;;;;;;13.68;68.66;101585.00;5036288;28;20025;-53
2023/04/16 08:09:30;;;;;;;10.07;7.40;;;;;;;13.65;68.57;101586.94;5041802;28;20106;-52
2023/04/16 08:11:56;;;;;;;10.52;7.63;;;;;;;13.67;68.79;101588.56;5042797;28;20029;-53
2023/04/16 08:14:22;;;;;;;12.00;7.65;;;;;;;13.68;68.45;101595.56;5034821;28;20092;-51
2023/04/16 08:16:48;;;;;;;11.25;7.72;;;;;;;13.75;68.40;101597.84;5035195;28;20029;-51
2023/04/16 08:19:15;;;;;;;10.88;7.63;;;;;;;13.78;68.37;101600.31;5039848;28;20036;-54
2023/04/16 08:21:41;;;;;;;10.25;7.22;;;;;;;13.80;68.25;101609.03;5028113;28;20112;-51
2023/04/16 08:24:06;;;;;;;10.38;7.43;;;;;;;13.85;68.54;101605.16;5030532;28;20037;-50
2023/04/16 08:26:32;;;;;;;10.65;6.75;;;;;;;13.89;68.08;101603.19;5037544;28;20066;-55
2023/04/16 08:28:57;;;;;;;9.18;6.80;;;;;;;13.91;68.24;101609.25;5026976;28;20032;-53
2023/04/16 08:31:23;;;;;;;13.73;6.60;;;;;;;13.95;67.90;101613.41;5037377;28;20040;-53
2023/04/16 08:33:48;;;;;;;11.30;7.15;;;;;;;14.01;67.83;101613.03;5019866;28;20041;-53
2023/04/16 08:36:14;;;;;;;16.33;9.68;;;;;;;14.13;67.66;101615.94;5034580;28;20043;-51
2023/04/16 08:38:39;;;;;;;10.60;7.00;;;;;;;14.30;67.36;101614.94;5028466;28;20029;-54
2023/04/16 08:41:08;;;;;;;10.75;6.90;;;;;;;14.47;67.10;101616.56;5026888;28;20487;-52
2023/04/16 08:43:36;;;;;;;17.88;7.78;;;;;;;14.63;67.03;101614.69;5031851;28;20078;-51
2023/04/16 08:46:03;;;;;;;10.45;6.82;;;;;;;14.74;66.59;101623.81;5042935;28;20041;-53
2023/04/16 08:48:32;;;;;;;9.70;5.82;;;;;;;14.81;66.39;101627.78;5035157;28;20033;-52
2023/04/16 08:50:59;;;;;;;8.88;5.88;;;;;;;14.77;66.10;101621.81;5027604;28;20891;-52
2023/04/16 08:53:35;;;;;;;8.48;5.50;;;;;;;14.75;65.88;101628.13;5034012;28;20041;-54
2023/04/16 08:56:03;;;;;;;12.75;6.10;;;;;;;14.71;65.96;101626.66;5030297;28;21682;-55
2023/04/16 08:58:33;;;;;;;9.13;5.95;;;;;;;14.66;65.90;101621.59;5025312;28;20116;-52
2023/04/16 09:01:02;;;;;;;9.85;5.75;;;;;;;14.61;65.93;101632.44;5034076;22;20070;-55
2023/04/16 09:03:28;;;;;;;8.23;5.03;;;;;;;14.59;65.70;101638.81;5026071;28;20044;-51
2023/04/16 09:05:58;;;;;;;8.82;5.50;;;;;;;14.54;65.81;101633.78;5024339;28;20152;-58
2023/04/16 09:08:27;;;;;;;9.23;5.60;;;;;;;14.52;65.98;101633.03;5022686;28;20036;-54
2023/04/16 09:10:54;;;;;;;9.55;6.90;;;;;;;14.49;65.65;101633.19;5019110;28;20021;-58
2023/04/16 09:13:22;;;;;;;9.48;6.65;;;;;;;14.47;65.57;101635.94;5024372;28;20108;-49
2023/04/16 09:15:52;;;;;;;8.07;5.40;;;;;;;14.49;65.41;101643.78;5023982;28;20497;-50
2023/04/16 09:18:19;;;;;;;10.98;5.63;;;;;;;14.49;65.32;101646.44;5026151;28;20566;-54
2023/04/16 09:20:44;;;;;;;4.72;3.28;;;;;;;14.46;65.39;101646.63;5022806;28;20037;-53
2023/04/16 09:23:10;;;;;;;10.57;6.82;;;;;;;14.47;65.23;101648.31;5023693;28;20494;-52
2023/04/16 09:25:37;;;;;;;18.92;12.02;;;;;;;14.48;65.26;101647.38;5024673;28;20021;-57
2023/04/16 09:28:03;;;;;;;9.63;5.47;;;;;;;14.44;65.01;101646.72;5021095;28;20033;-53
2023/04/16 09:30:28;;;;;;;9.05;5.38;;;;;;;14.43;64.99;101654.78;5020927;28;20041;-48
2023/04/16 09:33:22;;;;;;;12.35;5.00;;;;;;;14.46;64.83;101654.56;5022062;28;20034;-57
2023/04/16 09:35:50;;;;;;;15.20;10.30;;;;;;;14.45;65.05;101652.84;5025435;28;20037;-53
2023/04/16 09:38:16;;;;;;;9.32;6.63;;;;;;;14.48;65.24;101657.97;5028130;28;20051;-55
2023/04/16 09:40:42;;;;;;;11.98;6.15;;;;;;;14.47;65.06;101657.13;5006550;28;20033;-54
2023/04/16 09:43:17;;;;;;;7.82;5.00;;;;;;;14.47;64.85;101653.63;5027035;28;20021;-53
2023/04/16 09:45:53;;;;;;;7.53;5.20;;;;;;;14.44;64.71;101661.78;5004772;28;20042;-52
2023/04/16 09:48:36;;;;;;;9.55;5.88;;;;;;;14.43;64.66;101666.19;5021872;28;20034;-55
2023/04/16 09:51:05;;;;;;;8.18;5.30;;;;;;;14.41;64.72;101660.13;5023883;28;20704;-51
2023/04/16 09:53:31;;;;;;;8.82;5.53;;;;;;;14.39;64.73;101663.84;5033303;28;20028;-54
2023/04/16 09:56:01;;;;;;;8.63;5.50;;;;;;;14.39;64.73;101663.84;5028610;28;20052;-51
2023/04/16 09:58:27;;;;;;;7.78;5.65;;;;;;;14.38;64.56;101662.97;5025015;28;20048;-55
2023/04/16 10:01:11;;;;;;;7.55;5.35;;;;;;;14.39;64.41;101663.84;5025787;28;20044;-53
2023/04/16 10:03:39;;;;;;;8.98;6.30;;;;;;;14.37;64.64;101671.84;5025097;28;20038;-54
2023/04/16 10:06:14;;;;;;;9.18;5.93;;;;;;;14.35;64.29;101678.19;5023320;28;20021;-54
2023/04/16 10:08:45;;;;;;;8.65;5.72;;;;;;;14.30;64.38;101684.59;5031870;28;20041;-54
2023/04/16 10:11:11;;;;;;;8.10;6.03;;;;;;;14.23;64.53;101679.75;5025641;28;20680;-55
2023/04/16 10:13:36;;;;;;;11.10;6.20;;;;;;;14.23;64.35;101680.63;5033581;28;20029;-54
2023/04/16 10:16:02;;;;;;;10.75;6.75;;;;;;;14.25;64.38;101681.38;5022962;28;20399;-54
2023/04/16 10:18:28;;;;;;;7.35;5.88;;;;;;;14.27;64.23;101684.78;5028784;28;20173;-55
2023/04/16 10:20:56;;;;;;;8.98;6.03;;;;;;;14.25;64.31;101684.03;5023698;28;20745;-53
2023/04/16 10:23:21;;;;;;;8.23;6.38;;;;;;;14.14;64.30;101687.28;5028023;28;20045;-51
2023/04/16 10:25:48;;;;;;;12.65;7.40;;;;;;;14.11;64.13;101694.56;5025232;28;20033;-54
2023/04/16 10:28:15;;;;;;;11.95;8.40;;;;;;;14.10;64.27;101698.16;5026833;28;20056;-54
2023/04/16 10:30:47;;;;;;;10.63;6.93;;;;;;;14.09;64.43;101694.63;5024633;28;20033;-54
2023/04/16 10:33:13;;;;;;;8.52;6.38;;;;;;;14.09;64.36;101699.94;5011900;28;20045;-55
2023/04/16 10:35:39;;;;;;;13.27;8.55;;;;;;;14.10;64.46;101698.16;5020875;28;20064;-55
2023/04/16 10:38:25;;;;;;;12.27;7.88;;;;;;;14.10;64.24;101703.44;5022724;28;20083;-54
2023/04/16 10:40:58;;;;;;;9.95;6.80;;;;;;;14.12;64.44;101706.84;5030408;28;20068;-55
2023/04/16 10:43:24;;;;;;;9.85;6.57;;;;;;;14.16;64.45;101709.25;5029687;28;20025;-55
2023/04/16 10:45:49;;;;;;;9.77;5.47;;;;;;;14.18;64.32;101706.50;5023662;28;20037;-52
2023/04/16 10:48:17;;;;;;;8.02;5.93;;;;;;;14.21;64.02;101705.47;5023939;28;20471;-54
2023/04/16 10:50:56;;;;;;;7.82;5.55;;;;;;;14.16;64.17;101705.72;5027346;28;20021;-52
2023/04/16 10:53:26;;;;;;;8.32;5.57;;;;;;;14.15;64.31;101714.59;5025476;28;20025;-52
2023/04/16 10:56:10;;;;;;;29.13;17.30;;;;;;;14.15;64.14;101711.94;5025393;28;20037;-53
2023/04/16 10:58:36;;;;;;;9.13;5.72;;;;;;;14.10;64.35;101717.50;5006694;28;20095;-51
2023/04/16 11:01:12;;;;;;;6.63;4.25;;;;;;;14.11;64.20;101713.09;5024688;28;20041;-54
2023/04/16 11:03:59;;;;;;;6.40;4.55;;;;;;;14.09;64.12;101714.97;5025431;28;20029;-52
2023/04/16 11:06:26;;;;;;;7.80;4.88;;;;;;;14.10;64.20;101727.25;5023218;28;20107;-51
2023/04/16 11:08:52;;;;;;;7.55;4.65;;;;;;;14.09;64.15;101714.97;5031043;28;20104;-55
2023/04/16 11:11:18;;;;;;;5.55;3.92;;;;;;;14.10;63.87;101727.25;5021488;28;20507;-52